createdAt,value
2023-04-09T00:01:12.642Z,9.59
2023-04-09T00:03:42.401Z,9.56
2023-04-09T00:06:13.700Z,9.52
2023-04-09T00:08:44.838Z,9.56
2023-04-09T00:11:14.426Z,9.57
2023-04-09T00:13:42.891Z,9.56
2023-04-09T00:16:11.553Z,9.56
2023-04-09T00:18:40.176Z,9.55
2023-04-09T00:21:10.349Z,9.62
2023-04-09T00:23:39.076Z,9.51
2023-04-09T00:26:10.357Z,9.47
2023-04-09T00:28:38.983Z,9.45
2023-04-09T00:31:11.228Z,9.44
2023-04-09T00:33:39.869Z,9.40
2023-04-09T00:36:08.554Z,9.43
2023-04-09T00:38:41.095Z,9.41
2023-04-09T00:41:11.706Z,9.37
2023-04-09T00:43:40.408Z,9.43
2023-04-09T00:46:10.184Z,9.41
2023-04-09T00:48:40.516Z,9.39
2023-04-09T00:51:10.472Z,9.40
2023-04-09T00:53:39.209Z,9.42
2023-04-09T00:56:11.920Z,9.42
2023-04-09T00:58:42.259Z,9.46
2023-04-09T01:01:11.004Z,9.54
2023-04-09T01:03:39.699Z,9.42
2023-04-09T01:06:13.252Z,9.42
2023-04-09T01:08:51.588Z,9.37
2023-04-09T01:11:33.934Z,9.43
2023-04-09T01:14:15.375Z,9.42
2023-04-09T01:16:49.274Z,9.31
2023-04-09T01:19:36.618Z,9.26
2023-04-09T01:22:11.220Z,9.23
2023-04-09T01:24:53.728Z,9.26
2023-04-09T01:27:24.222Z,9.23
2023-04-09T01:29:56.174Z,9.29
2023-04-09T01:32:25.920Z,9.26
2023-04-09T01:34:55.192Z,9.36
2023-04-09T01:37:26.732Z,9.32
2023-04-09T01:39:55.712Z,9.29
2023-04-09T01:42:24.889Z,9.31
2023-04-09T01:44:55.554Z,9.28
2023-04-09T01:47:24.160Z,9.35
2023-04-09T01:49:54.093Z,9.31
2023-04-09T01:52:23.319Z,9.25
2023-04-09T01:54:52.406Z,9.23
2023-04-09T01:57:20.880Z,9.18
2023-04-09T01:59:49.571Z,9.13
2023-04-09T02:02:24.757Z,9.14
2023-04-09T02:04:55.747Z,9.21
2023-04-09T02:07:32.356Z,9.25
2023-04-09T02:10:02.194Z,9.15
2023-04-09T02:12:33.566Z,9.19
2023-04-09T02:15:03.101Z,9.22
2023-04-09T02:17:36.030Z,9.27
2023-04-09T02:20:04.614Z,9.15
2023-04-09T02:22:33.154Z,9.13
2023-04-09T02:25:01.853Z,9.10
2023-04-09T02:27:30.533Z,9.15
2023-04-09T02:29:59.039Z,9.06
2023-04-09T02:32:29.835Z,9.04
2023-04-09T02:34:59.979Z,8.96
2023-04-09T02:37:29.645Z,8.91
2023-04-09T02:39:58.204Z,9.05
2023-04-09T02:42:26.715Z,8.91
2023-04-09T02:44:56.519Z,8.89
2023-04-09T02:47:27.691Z,8.83
2023-04-09T02:49:56.203Z,8.84
2023-04-09T02:52:26.363Z,8.77
2023-04-09T02:54:55.921Z,8.77
2023-04-09T02:57:24.517Z,8.78
2023-04-09T02:59:53.446Z,8.76
2023-04-09T03:02:24.186Z,8.84
2023-04-09T03:04:54.858Z,8.83
2023-04-09T03:07:25.682Z,8.80
2023-04-09T03:09:54.102Z,8.98
2023-04-09T03:12:23.767Z,8.87
2023-04-09T03:14:52.608Z,8.94
2023-04-09T03:17:21.161Z,8.95
2023-04-09T03:19:49.708Z,9.02
2023-04-09T03:22:18.268Z,9.03
2023-04-09T03:24:48.337Z,9.08
2023-04-09T03:27:17.190Z,9.05
2023-04-09T03:29:45.751Z,9.06
2023-04-09T03:32:16.801Z,9.09
2023-04-09T03:34:48.166Z,9.10
2023-04-09T03:37:16.710Z,9.08
2023-04-09T03:39:45.467Z,9.07
2023-04-09T03:42:15.578Z,9.06
2023-04-09T03:44:44.101Z,9.10
2023-04-09T03:47:13.738Z,9.11
2023-04-09T03:49:42.354Z,9.06
2023-04-09T03:52:10.869Z,9.06
2023-04-09T03:54:39.524Z,9.07
2023-04-09T03:57:08.095Z,9.05
2023-04-09T03:59:39.145Z,9.06
2023-04-09T04:02:07.896Z,9.08
2023-04-09T04:04:36.695Z,9.02
2023-04-09T04:07:05.563Z,8.95
2023-04-09T04:09:34.186Z,8.99
2023-04-09T04:12:03.505Z,8.96
2023-04-09T04:14:33.069Z,8.99
2023-04-09T04:17:03.218Z,8.93
2023-04-09T04:19:32.165Z,8.87
2023-04-09T04:22:02.844Z,8.89
2023-04-09T04:24:31.473Z,8.89
2023-04-09T04:27:00.064Z,8.86
2023-04-09T04:29:29.374Z,8.84
2023-04-09T04:31:58.005Z,8.86
2023-04-09T04:34:28.214Z,8.93
2023-04-09T04:36:56.796Z,8.86
2023-04-09T04:39:25.801Z,8.84
2023-04-09T04:41:54.111Z,8.82
2023-04-09T04:44:23.446Z,8.84
2023-04-09T04:46:52.465Z,8.81
2023-04-09T04:49:21.129Z,8.94
2023-04-09T04:51:51.150Z,8.83
2023-04-09T04:54:19.741Z,8.89
2023-04-09T04:56:51.452Z,8.83
2023-04-09T04:59:20.002Z,8.82
2023-04-09T05:01:48.627Z,8.78
2023-04-09T05:04:17.211Z,8.71
2023-04-09T05:06:45.723Z,8.73
2023-04-09T05:09:15.816Z,8.69
2023-04-09T05:11:44.205Z,8.64
2023-04-09T05:14:13.525Z,8.66
2023-04-09T05:16:42.626Z,8.61
2023-04-09T05:19:11.319Z,8.57
2023-04-09T05:21:40.857Z,8.54
2023-04-09T05:24:09.490Z,8.56
2023-04-09T05:26:39.563Z,8.54
2023-04-09T05:29:08.298Z,8.51
2023-04-09T05:31:37.834Z,8.50
2023-04-09T05:34:06.428Z,8.47
2023-04-09T05:36:36.137Z,8.45
2023-04-09T05:39:04.793Z,8.42
2023-04-09T05:41:36.219Z,8.42
2023-04-09T05:44:06.413Z,8.40
2023-04-09T05:46:35.089Z,8.41
2023-04-09T05:49:03.705Z,8.43
2023-04-09T05:51:32.318Z,8.39
2023-04-09T05:54:00.946Z,8.44
2023-04-09T05:56:29.663Z,8.43
2023-04-09T05:58:58.255Z,8.42
2023-04-09T06:01:29.921Z,8.39
2023-04-09T06:04:00.843Z,8.41
2023-04-09T06:06:29.698Z,8.48
2023-04-09T06:08:58.284Z,8.48
2023-04-09T06:11:27.350Z,8.51
2023-04-09T06:13:55.828Z,8.60
2023-04-09T06:16:25.704Z,8.63
2023-04-09T06:18:57.370Z,8.60
2023-04-09T06:21:26.218Z,8.69
2023-04-09T06:23:55.864Z,8.78
2023-04-09T06:26:25.631Z,8.79
2023-04-09T06:28:54.274Z,8.82
2023-04-09T06:31:22.961Z,8.84
2023-04-09T06:33:51.746Z,9.00
2023-04-09T06:36:22.162Z,8.95
2023-04-09T06:38:50.841Z,9.02
2023-04-09T06:41:22.569Z,9.19
2023-04-09T06:43:51.627Z,9.12
2023-04-09T06:46:20.382Z,9.18
2023-04-09T06:48:49.274Z,9.17
2023-04-09T06:51:18.033Z,9.21
2023-04-09T06:53:48.628Z,9.23
2023-04-09T06:56:18.295Z,9.28
2023-04-09T06:58:47.467Z,9.31
2023-04-09T07:01:17.693Z,9.24
2023-04-09T07:03:46.492Z,9.28
2023-04-09T07:06:17.312Z,9.35
2023-04-09T07:08:48.316Z,9.39
2023-04-09T07:11:18.254Z,9.41
2023-04-09T07:13:46.882Z,9.44
2023-04-09T07:16:15.551Z,9.48
2023-04-09T07:18:45.226Z,9.43
2023-04-09T07:21:14.938Z,9.55
2023-04-09T07:23:44.547Z,9.61
2023-04-09T07:26:14.944Z,9.73
2023-04-09T07:28:44.431Z,9.73
2023-04-09T07:31:14.407Z,9.81
2023-04-09T07:33:43.160Z,9.76
2023-04-09T07:36:11.817Z,9.80
2023-04-09T07:38:40.627Z,9.80
2023-04-09T07:41:12.092Z,9.82
2023-04-09T07:43:42.763Z,9.81
2023-04-09T07:46:11.678Z,9.93
2023-04-09T07:48:40.287Z,9.91
2023-04-09T07:51:09.181Z,9.96
2023-04-09T07:53:37.542Z,10.15
2023-04-09T07:56:07.358Z,10.03
2023-04-09T07:58:35.850Z,10.19
2023-04-09T08:01:07.358Z,10.23
2023-04-09T08:03:36.681Z,10.17
2023-04-09T08:06:06.373Z,10.43
2023-04-09T08:08:35.426Z,10.61
2023-04-09T08:11:04.096Z,10.75
2023-04-09T08:13:32.955Z,10.94
2023-04-09T08:16:04.136Z,10.94
2023-04-09T08:18:34.272Z,10.81
2023-04-09T08:21:07.689Z,10.96
2023-04-09T08:23:36.320Z,10.98
2023-04-09T08:26:05.012Z,11.03
2023-04-09T08:28:33.572Z,11.02
2023-04-09T08:31:02.337Z,11.12
2023-04-09T08:33:31.184Z,11.16
2023-04-09T08:36:03.080Z,11.31
2023-04-09T08:38:32.152Z,11.42
2023-04-09T08:41:00.682Z,11.38
2023-04-09T08:43:52.569Z,11.36
2023-04-09T08:46:21.421Z,11.32
2023-04-09T08:48:52.083Z,11.36
2023-04-09T08:51:24.394Z,11.30
2023-04-09T08:54:00.165Z,11.40
2023-04-09T08:56:30.863Z,11.37
2023-04-09T08:58:59.579Z,11.44
2023-04-09T09:01:30.116Z,11.46
2023-04-09T09:04:01.761Z,11.55
2023-04-09T09:06:33.864Z,11.60
2023-04-09T09:09:04.983Z,11.66
2023-04-09T09:11:34.282Z,11.76
2023-04-09T09:14:05.027Z,11.64
2023-04-09T09:16:34.987Z,11.77
2023-04-09T09:19:04.589Z,11.78
2023-04-09T09:21:36.838Z,11.76
2023-04-09T09:24:19.109Z,11.53
2023-04-09T09:26:47.496Z,11.66
2023-04-09T09:29:16.063Z,11.69
2023-04-09T09:31:50.031Z,11.65
2023-04-09T09:34:18.769Z,11.65
2023-04-09T09:36:50.401Z,11.61
2023-04-09T09:39:19.332Z,11.54
2023-04-09T09:41:48.996Z,11.59
2023-04-09T09:44:35.655Z,11.57
2023-04-09T09:47:06.422Z,11.48
2023-04-09T09:49:34.825Z,11.47
2023-04-09T09:52:09.276Z,11.46
2023-04-09T09:54:42.538Z,11.41
2023-04-09T09:57:13.738Z,11.45
2023-04-09T09:59:45.260Z,11.43
2023-04-09T10:02:21.302Z,11.39
2023-04-09T10:04:53.109Z,11.36
2023-04-09T10:07:24.190Z,11.32
2023-04-09T10:09:54.780Z,11.29
2023-04-09T10:12:26.591Z,11.33
2023-04-09T10:14:57.667Z,11.39
2023-04-09T10:17:26.758Z,11.46
2023-04-09T10:20:04.164Z,11.43
2023-04-09T10:22:36.505Z,11.42
2023-04-09T10:25:11.583Z,11.38
2023-04-09T10:27:40.279Z,11.46
2023-04-09T10:30:10.993Z,11.51
2023-04-09T10:32:40.188Z,11.47
2023-04-09T10:35:11.437Z,11.54
2023-04-09T10:37:50.817Z,11.56
2023-04-09T10:40:21.864Z,11.55
2023-04-09T10:42:50.918Z,11.66
2023-04-09T10:45:22.415Z,11.42
2023-04-09T10:47:52.834Z,11.39
2023-04-09T10:50:24.226Z,11.30
2023-04-09T10:52:56.739Z,11.35
2023-04-09T10:55:38.933Z,11.19
2023-04-09T10:58:12.005Z,11.18
2023-04-09T11:00:42.767Z,11.16
2023-04-09T11:03:24.593Z,11.03
2023-04-09T11:05:57.597Z,11.03
2023-04-09T11:08:30.429Z,11.00
2023-04-09T11:11:01.568Z,11.13
2023-04-09T11:13:31.697Z,11.07
2023-04-09T11:16:01.398Z,11.24
2023-04-09T11:18:31.623Z,11.42
2023-04-09T11:21:02.041Z,11.56
2023-04-09T11:23:33.321Z,11.68
2023-04-09T11:26:02.176Z,11.83
2023-04-09T11:28:30.933Z,11.82
2023-04-09T11:30:59.723Z,11.88
2023-04-09T11:33:35.058Z,11.91
2023-04-09T11:36:07.741Z,11.70
2023-04-09T11:38:39.116Z,11.90
2023-04-09T11:41:13.075Z,12.03
2023-04-09T11:43:41.648Z,12.03
2023-04-09T11:46:11.697Z,11.91
2023-04-09T11:48:40.281Z,11.88
2023-04-09T11:51:09.087Z,11.94
2023-04-09T11:53:39.280Z,12.08
2023-04-09T11:56:08.515Z,11.86
2023-04-09T11:58:38.959Z,11.83
2023-04-09T12:01:07.923Z,11.69
2023-04-09T12:03:37.822Z,11.69
2023-04-09T12:06:10.940Z,11.62
2023-04-09T12:08:42.168Z,11.69
2023-04-09T12:11:12.859Z,11.83
2023-04-09T12:13:43.694Z,11.90
2023-04-09T12:16:12.988Z,11.76
2023-04-09T12:18:42.430Z,11.80
2023-04-09T12:21:12.157Z,11.86
2023-04-09T12:23:42.235Z,11.68
2023-04-09T12:26:11.127Z,11.67
2023-04-09T12:28:39.980Z,11.73
2023-04-09T12:31:12.339Z,11.73
2023-04-09T12:33:41.622Z,11.70
2023-04-09T12:36:10.390Z,11.71
2023-04-09T12:38:39.163Z,11.68
2023-04-09T12:41:09.759Z,11.71
2023-04-09T12:43:39.145Z,11.77
2023-04-09T12:46:08.720Z,11.78
2023-04-09T12:48:37.576Z,11.80
2023-04-09T12:51:06.767Z,11.89
2023-04-09T12:53:35.716Z,11.90
2023-04-09T12:56:04.386Z,11.88
2023-04-09T12:58:34.665Z,11.90
2023-04-09T13:01:04.586Z,11.97
2023-04-09T13:03:33.722Z,11.99
2023-04-09T13:06:02.742Z,12.13
2023-04-09T13:08:31.425Z,12.16
2023-04-09T13:11:00.146Z,12.04
2023-04-09T13:13:29.031Z,12.17
2023-04-09T13:15:59.305Z,12.17
2023-04-09T13:18:28.127Z,12.18
2023-04-09T13:20:56.788Z,12.21
2023-04-09T13:23:25.702Z,12.17
2023-04-09T13:25:54.331Z,12.15
2023-04-09T13:28:22.999Z,12.12
2023-04-09T13:30:51.644Z,12.10
2023-04-09T13:33:21.699Z,12.15
2023-04-09T13:35:51.722Z,12.11
2023-04-09T13:38:20.412Z,12.14
2023-04-09T13:40:48.879Z,12.21
2023-04-09T13:43:17.881Z,12.10
2023-04-09T13:45:46.511Z,12.06
2023-04-09T13:48:15.631Z,12.05
2023-04-09T13:50:45.883Z,12.12
2023-04-09T13:53:14.396Z,12.02
2023-04-09T13:55:43.445Z,12.11
2023-04-09T13:58:11.985Z,12.10
2023-04-09T14:00:40.733Z,12.14
2023-04-09T14:03:09.749Z,12.16
2023-04-09T14:05:38.757Z,12.24
2023-04-09T14:08:08.832Z,12.34
2023-04-09T14:10:37.946Z,12.29
2023-04-09T14:13:07.781Z,12.25
2023-04-09T14:15:39.357Z,12.26
2023-04-09T14:18:08.455Z,12.33
2023-04-09T14:20:38.763Z,12.33
2023-04-09T14:23:08.888Z,12.31
2023-04-09T14:25:37.739Z,12.33
2023-04-09T14:28:06.421Z,12.39
2023-04-09T14:30:35.551Z,12.46
2023-04-09T14:33:04.318Z,12.59
2023-04-09T14:35:32.906Z,12.65
2023-04-09T14:38:01.902Z,12.74
2023-04-09T14:40:32.180Z,12.77
2023-04-09T14:43:01.301Z,12.79
2023-04-09T14:45:30.803Z,12.82
2023-04-09T14:47:59.930Z,12.93
2023-04-09T14:50:28.779Z,12.91
2023-04-09T14:52:57.549Z,13.02
2023-04-09T14:55:26.288Z,12.94
2023-04-09T14:57:58.049Z,12.77
2023-04-09T15:00:27.051Z,12.58
2023-04-09T15:02:56.704Z,12.48
2023-04-09T15:05:25.496Z,12.45
2023-04-09T15:07:54.178Z,12.34
2023-04-09T15:10:22.938Z,12.34
2023-04-09T15:12:51.652Z,12.40
2023-04-09T15:15:21.899Z,12.49
2023-04-09T15:17:50.912Z,12.46
2023-04-09T15:20:19.817Z,12.54
2023-04-09T15:22:49.783Z,12.78
2023-04-09T15:25:18.413Z,12.74
2023-04-09T15:27:47.716Z,12.66
2023-04-09T15:30:17.553Z,12.58
2023-04-09T15:32:47.612Z,12.49
2023-04-09T15:35:20.985Z,12.54
2023-04-09T15:37:49.798Z,12.42
2023-04-09T15:40:18.874Z,12.45
2023-04-09T15:42:47.428Z,12.39
2023-04-09T15:45:17.637Z,12.38
2023-04-09T15:47:48.813Z,12.34
2023-04-09T15:50:17.564Z,12.33
2023-04-09T15:52:46.638Z,12.43
2023-04-09T15:55:15.237Z,12.43
2023-04-09T15:57:47.647Z,12.58
2023-04-09T16:00:17.041Z,12.71
2023-04-09T16:02:47.207Z,12.88
2023-04-09T16:05:15.771Z,12.97
2023-04-09T16:07:44.472Z,12.93
2023-04-09T16:10:14.978Z,13.06
2023-04-09T16:12:43.481Z,12.93
2023-04-09T16:15:12.740Z,12.89
2023-04-09T16:17:41.391Z,12.82
2023-04-09T16:20:11.913Z,12.70
2023-04-09T16:22:40.586Z,12.67
2023-04-09T16:25:09.912Z,12.62
2023-04-09T16:27:38.797Z,12.59
2023-04-09T16:30:08.250Z,12.66
2023-04-09T16:32:36.846Z,12.61
2023-04-09T16:35:06.086Z,12.68
2023-04-09T16:37:36.541Z,12.81
2023-04-09T16:40:05.215Z,12.79
2023-04-09T16:42:33.799Z,12.67
2023-04-09T16:45:04.678Z,12.53
2023-04-09T16:47:33.372Z,12.60
2023-04-09T16:50:03.294Z,12.51
2023-04-09T16:52:32.005Z,12.46
2023-04-09T16:55:02.272Z,12.51
2023-04-09T16:57:31.062Z,12.32
2023-04-09T16:59:59.783Z,12.26
2023-04-09T17:02:28.917Z,12.18
2023-04-09T17:04:57.958Z,12.18
2023-04-09T17:07:26.771Z,12.09
2023-04-09T17:09:55.545Z,12.31
2023-04-09T17:12:26.975Z,12.37
2023-04-09T17:14:56.403Z,12.47
2023-04-09T17:17:25.147Z,12.51
2023-04-09T17:19:53.830Z,12.58
2023-04-09T17:22:22.632Z,12.54
2023-04-09T17:24:52.073Z,12.46
2023-04-09T17:27:21.235Z,12.50
2023-04-09T17:29:51.348Z,12.41
2023-04-09T17:32:20.095Z,12.39
2023-04-09T17:34:49.855Z,12.29
2023-04-09T17:37:18.643Z,12.18
2023-04-09T17:39:47.517Z,12.10
2023-04-09T17:42:16.615Z,12.09
2023-04-09T17:44:46.305Z,12.05
2023-04-09T17:47:16.497Z,12.06
2023-04-09T17:49:46.048Z,12.07
2023-04-09T17:52:15.061Z,12.05
2023-04-09T17:54:47.221Z,12.06
2023-04-09T17:57:15.935Z,12.03
2023-04-09T17:59:44.681Z,12.06
2023-04-09T18:02:13.484Z,12.01
2023-04-09T18:04:44.149Z,12.04
2023-04-09T18:07:13.257Z,12.01
2023-04-09T18:09:42.175Z,12.01
2023-04-09T18:12:11.284Z,11.95
2023-04-09T18:14:39.972Z,12.01
2023-04-09T18:17:08.593Z,11.97
2023-04-09T18:19:37.085Z,12.00
2023-04-09T18:22:07.104Z,11.99
2023-04-09T18:24:35.944Z,12.00
2023-04-09T18:27:04.604Z,12.02
2023-04-09T18:29:33.467Z,11.97
2023-04-09T18:32:02.032Z,11.94
2023-04-09T18:34:30.890Z,11.94
2023-04-09T18:36:59.547Z,11.91
2023-04-09T18:39:31.103Z,11.93
2023-04-09T18:41:59.729Z,11.83
2023-04-09T18:44:28.397Z,11.89
2023-04-09T18:46:57.505Z,11.90
2023-04-09T18:49:27.313Z,11.83
2023-04-09T18:51:56.926Z,11.77
2023-04-09T18:54:26.545Z,11.75
2023-04-09T18:56:57.888Z,11.71
2023-04-09T18:59:26.545Z,11.66
2023-04-09T19:01:55.758Z,11.64
2023-04-09T19:04:28.128Z,11.65
2023-04-09T19:06:56.769Z,11.62
2023-04-09T19:09:25.460Z,11.66
2023-04-09T19:11:55.735Z,11.59
2023-04-09T19:14:24.409Z,11.63
2023-04-09T19:16:53.311Z,11.62
2023-04-09T19:19:22.111Z,11.64
2023-04-09T19:21:50.832Z,11.68
2023-04-09T19:24:19.426Z,11.58
2023-04-09T19:26:48.378Z,11.57
2023-04-09T19:29:18.413Z,11.60
2023-04-09T19:31:47.399Z,11.63
2023-04-09T19:34:16.615Z,11.60
2023-04-09T19:36:46.537Z,11.59
2023-04-09T19:39:15.766Z,11.59
2023-04-09T19:41:44.370Z,11.58
2023-04-09T19:44:13.163Z,11.51
2023-04-09T19:46:45.911Z,11.54
2023-04-09T19:49:15.765Z,11.52
2023-04-09T19:51:44.342Z,11.61
2023-04-09T19:54:13.166Z,11.56
2023-04-09T19:56:42.891Z,11.51
2023-04-09T19:59:11.528Z,11.43
2023-04-09T20:01:40.379Z,11.42
2023-04-09T20:04:10.707Z,11.40
2023-04-09T20:06:39.396Z,11.51
2023-04-09T20:09:08.047Z,11.40
2023-04-09T20:11:36.838Z,11.43
2023-04-09T20:14:05.365Z,11.38
2023-04-09T20:16:37.186Z,11.37
2023-04-09T20:19:06.062Z,11.38
2023-04-09T20:21:36.065Z,11.38
2023-04-09T20:24:05.090Z,11.39
2023-04-09T20:26:33.766Z,11.28
2023-04-09T20:29:02.986Z,11.29
2023-04-09T20:31:32.468Z,11.35
2023-04-09T20:34:01.113Z,11.30
2023-04-09T20:36:30.003Z,11.28
2023-04-09T20:39:00.350Z,11.31
2023-04-09T20:41:29.296Z,11.23
2023-04-09T20:43:57.904Z,11.27
2023-04-09T20:46:26.610Z,11.30
2023-04-09T20:48:56.460Z,11.32
2023-04-09T20:51:25.059Z,11.24
2023-04-09T20:53:53.602Z,11.27
2023-04-09T20:56:23.978Z,11.22
2023-04-09T20:58:52.829Z,11.25
2023-04-09T21:01:23.654Z,11.19
2023-04-09T21:03:52.380Z,11.17
2023-04-09T21:06:21.173Z,11.22
2023-04-09T21:08:49.732Z,11.26
2023-04-09T21:11:18.328Z,11.18
2023-04-09T21:13:54.523Z,11.08
2023-04-09T21:16:26.150Z,10.98
2023-04-09T21:18:54.744Z,11.01
2023-04-09T21:21:23.794Z,11.02
2023-04-09T21:23:52.457Z,10.97
2023-04-09T21:26:21.133Z,10.83
2023-04-09T21:28:51.290Z,10.79
2023-04-09T21:31:20.058Z,10.71
2023-04-09T21:33:48.895Z,10.74
2023-04-09T21:36:17.701Z,10.66
2023-04-09T21:38:46.415Z,10.68
2023-04-09T21:41:15.121Z,10.68
2023-04-09T21:43:43.886Z,10.65
2023-04-09T21:46:14.207Z,10.60
2023-04-09T21:48:43.080Z,10.62
2023-04-09T21:51:12.072Z,10.57
2023-04-09T21:53:40.667Z,10.66
2023-04-09T21:56:09.649Z,10.53
2023-04-09T21:58:38.408Z,10.49
2023-04-09T22:01:15.675Z,10.50
2023-04-09T22:03:52.833Z,10.48
2023-04-09T22:06:21.569Z,10.49
2023-04-09T22:08:56.378Z,10.52
2023-04-09T22:11:28.712Z,10.47
2023-04-09T22:13:58.235Z,10.49
2023-04-09T22:16:27.865Z,10.42
2023-04-09T22:18:58.389Z,10.40
2023-04-09T22:21:27.921Z,10.36
2023-04-09T22:23:56.548Z,10.34
2023-04-09T22:26:25.440Z,10.29
2023-04-09T22:28:54.261Z,10.28
2023-04-09T22:31:23.209Z,10.28
2023-04-09T22:33:51.777Z,10.30
2023-04-09T22:36:23.311Z,10.34
2023-04-09T22:38:52.067Z,10.28
2023-04-09T22:41:21.818Z,10.18
2023-04-09T22:43:50.740Z,10.24
2023-04-09T22:46:19.389Z,10.20
2023-04-09T22:48:48.879Z,10.25
2023-04-09T22:51:17.990Z,10.24
2023-04-09T22:53:48.809Z,10.24
2023-04-09T22:56:17.575Z,10.18
2023-04-09T22:58:46.226Z,10.25
2023-04-09T23:01:15.069Z,10.19
2023-04-09T23:03:43.618Z,10.27
2023-04-09T23:06:12.281Z,10.38
2023-04-09T23:08:41.277Z,10.51
2023-04-09T23:11:11.921Z,10.54
2023-04-09T23:13:40.603Z,10.57
2023-04-09T23:16:10.904Z,10.60
2023-04-09T23:18:39.825Z,10.58
2023-04-09T23:21:09.126Z,10.46
2023-04-09T23:23:40.690Z,10.39
2023-04-09T23:26:10.644Z,10.32
2023-04-09T23:28:38.962Z,10.22
2023-04-09T23:31:07.771Z,10.17
2023-04-09T23:33:36.584Z,10.20
2023-04-09T23:36:05.322Z,10.15
2023-04-09T23:38:33.976Z,10.16
2023-04-09T23:41:02.702Z,10.14
2023-04-09T23:43:32.927Z,10.09
2023-04-09T23:46:01.532Z,10.05
2023-04-09T23:48:30.196Z,9.99
2023-04-09T23:50:58.829Z,9.93
2023-04-09T23:53:28.124Z,9.89
2023-04-09T23:55:56.776Z,9.82
2023-04-09T23:58:26.069Z,9.80
